createdAt,value
2018-05-09T00:01:36.205Z,100775.70
2018-05-09T00:04:07.746Z,100771.60
2018-05-09T00:06:36.592Z,100771.03
2018-05-09T00:09:08.627Z,100771.69
2018-05-09T00:11:37.945Z,100765.52
2018-05-09T00:14:09.355Z,100768.80
2018-05-09T00:16:39.594Z,100771.73
2018-05-09T00:19:10.314Z,100778.00
2018-05-09T00:21:40.947Z,100775.74
2018-05-09T00:24:12.234Z,100769.99
2018-05-09T00:26:41.347Z,100768.21
2018-05-09T00:29:12.530Z,100767.84
2018-05-09T00:31:44.516Z,100763.80
2018-05-09T00:34:15.135Z,100759.59
2018-05-09T00:36:44.556Z,100759.81
2018-05-09T00:39:13.807Z,100762.96
2018-05-09T00:41:44.716Z,100764.56
2018-05-09T00:44:13.750Z,100762.46
2018-05-09T00:46:44.565Z,100765.05
2018-05-09T00:49:14.309Z,100758.92
2018-05-09T00:51:43.414Z,100761.23
2018-05-09T00:54:34.983Z,100758.27
2018-05-09T00:57:05.934Z,100758.72
2018-05-09T00:59:35.247Z,100751.23
2018-05-09T01:02:06.424Z,100749.58
2018-05-09T01:04:37.758Z,100751.00
2018-05-09T01:07:07.706Z,100750.86
2018-05-09T01:09:39.140Z,100751.44
2018-05-09T01:12:09.930Z,100750.05
2018-05-09T01:14:39.695Z,100755.34
2018-05-09T01:17:10.697Z,100751.59
2018-05-09T01:19:41.296Z,100752.77
2018-05-09T01:22:11.928Z,100750.71
2018-05-09T01:24:41.054Z,100751.94
2018-05-09T01:27:12.997Z,100753.69
2018-05-09T01:29:42.029Z,100749.27
2018-05-09T01:32:11.414Z,100742.39
2018-05-09T01:34:42.006Z,100742.16
2018-05-09T01:37:10.875Z,100743.36
2018-05-09T01:39:42.848Z,100742.91
2018-05-09T01:42:14.284Z,100744.52
2018-05-09T01:44:43.466Z,100739.37
2018-05-09T01:47:12.863Z,100741.89
2018-05-09T01:49:43.385Z,100733.85
2018-05-09T01:52:14.370Z,100733.71
2018-05-09T01:54:43.457Z,100732.66
2018-05-09T01:57:13.328Z,100740.21
2018-05-09T01:59:44.047Z,100763.19
2018-05-09T02:02:15.444Z,100756.74
2018-05-09T02:04:44.877Z,100756.20
2018-05-09T02:07:14.232Z,100754.86
2018-05-09T02:09:45.416Z,100748.20
2018-05-09T02:12:14.770Z,100748.19
2018-05-09T02:14:45.678Z,100757.48
2018-05-09T02:17:14.872Z,100753.16
2018-05-09T02:19:45.616Z,100756.53
2018-05-09T02:22:17.121Z,100754.00
2018-05-09T02:24:47.808Z,100762.06
2018-05-09T02:27:18.356Z,100759.19
2018-05-09T02:29:49.040Z,100759.38
2018-05-09T02:32:20.072Z,100752.14
2018-05-09T02:34:49.805Z,100751.69
2018-05-09T02:37:20.600Z,100758.53
2018-05-09T02:39:50.795Z,100757.10
2018-05-09T02:42:20.204Z,100753.33
2018-05-09T02:44:51.085Z,100757.52
2018-05-09T02:47:20.447Z,100759.72
2018-05-09T02:49:51.479Z,100765.09
2018-05-09T02:52:20.748Z,100761.36
2018-05-09T02:54:51.459Z,100764.66
2018-05-09T02:57:20.311Z,100760.29
2018-05-09T02:59:51.737Z,100764.50
2018-05-09T03:02:22.410Z,100765.95
2018-05-09T03:04:53.332Z,100765.38
2018-05-09T03:07:23.970Z,100764.14
2018-05-09T03:09:55.337Z,100774.34
2018-05-09T03:12:24.747Z,100783.16
2018-05-09T03:14:56.061Z,100792.83
2018-05-09T03:17:27.435Z,100792.61
2018-05-09T03:19:58.923Z,100785.00
2018-05-09T03:22:30.938Z,100782.19
2018-05-09T03:25:00.895Z,100779.53
2018-05-09T03:27:31.833Z,100772.45
2018-05-09T03:30:01.781Z,100779.25
2018-05-09T03:32:32.859Z,100783.41
2018-05-09T03:35:02.810Z,100789.55
2018-05-09T03:37:33.695Z,100792.45
2018-05-09T03:40:02.988Z,100788.39
2018-05-09T03:42:33.981Z,100797.02
2018-05-09T03:45:03.242Z,100791.27
2018-05-09T03:47:34.191Z,100785.17
2018-05-09T03:50:05.047Z,100789.20
2018-05-09T03:52:36.007Z,100789.72
2018-05-09T03:55:06.057Z,100789.30
2018-05-09T03:57:36.975Z,100785.63
2018-05-09T04:00:07.509Z,100792.27
2018-05-09T04:03:15.527Z,100786.35
2018-05-09T04:06:22.466Z,100787.62
2018-05-09T04:09:30.539Z,100788.06
2018-05-09T04:12:01.748Z,100787.84
2018-05-09T04:14:32.990Z,100781.81
2018-05-09T04:17:02.371Z,100790.92
2018-05-09T04:19:32.303Z,100796.95
2018-05-09T04:22:01.463Z,100800.13
2018-05-09T04:24:32.456Z,100803.76
2018-05-09T04:27:01.783Z,100812.00
2018-05-09T04:29:32.469Z,100796.81
2018-05-09T04:32:04.237Z,100799.08
2018-05-09T04:34:33.611Z,100809.54
2018-05-09T04:37:05.371Z,100812.44
2018-05-09T04:39:36.108Z,100801.47
2018-05-09T04:42:06.671Z,100804.31
2018-05-09T04:44:37.389Z,100819.52
2018-05-09T04:47:08.773Z,100812.45
2018-05-09T04:49:39.675Z,100807.48
2018-05-09T04:52:10.594Z,100813.86
2018-05-09T04:54:40.229Z,100813.32
2018-05-09T04:57:11.125Z,100821.30
2018-05-09T04:59:41.871Z,100830.21
2018-05-09T05:02:11.025Z,100823.27
2018-05-09T05:04:41.895Z,100817.14
2018-05-09T05:07:11.209Z,100830.42
2018-05-09T05:09:42.339Z,100839.27
2018-05-09T05:12:11.449Z,100829.16
2018-05-09T05:14:42.282Z,100841.92
2018-05-09T05:17:13.184Z,100834.86
2018-05-09T05:19:43.841Z,100827.52
2018-05-09T05:22:14.684Z,100833.61
2018-05-09T05:24:44.129Z,100829.92
2018-05-09T05:27:13.233Z,100825.84
2018-05-09T05:29:42.576Z,100835.03
2018-05-09T05:32:13.475Z,100828.66
2018-05-09T05:34:44.125Z,100832.04
2018-05-09T05:37:14.972Z,100829.71
2018-05-09T05:39:45.825Z,100833.87
2018-05-09T05:42:15.067Z,100835.78
2018-05-09T05:44:45.933Z,100840.35
2018-05-09T05:47:16.642Z,100828.92
2018-05-09T05:49:47.298Z,100824.45
2018-05-09T05:52:17.818Z,100822.73
2018-05-09T05:54:48.956Z,100826.90
2018-05-09T05:57:20.276Z,100821.93
2018-05-09T05:59:51.481Z,100824.95
2018-05-09T06:02:22.975Z,100823.10
2018-05-09T06:04:52.098Z,100817.66
2018-05-09T06:07:22.761Z,100813.31
2018-05-09T06:09:53.793Z,100813.28
2018-05-09T06:12:24.928Z,100816.86
2018-05-09T06:14:55.561Z,100818.62
2018-05-09T06:17:28.320Z,100818.02
2018-05-09T06:19:57.657Z,100822.34
2018-05-09T06:22:26.972Z,100826.66
2018-05-09T06:24:56.282Z,100831.53
2018-05-09T06:27:27.720Z,100821.18
2018-05-09T06:29:58.446Z,100821.84
2018-05-09T06:32:28.263Z,100822.03
2018-05-09T06:34:57.689Z,100818.71
2018-05-09T06:37:26.862Z,100818.69
2018-05-09T06:39:57.629Z,100819.91
2018-05-09T06:42:26.789Z,100818.27
2018-05-09T06:44:57.720Z,100811.77
2018-05-09T06:47:28.456Z,100810.78
2018-05-09T06:49:59.338Z,100810.44
2018-05-09T06:52:29.050Z,100808.66
2018-05-09T06:54:59.705Z,100806.36
2018-05-09T06:57:29.048Z,100807.81
2018-05-09T06:59:58.106Z,100806.87
2018-05-09T07:02:28.094Z,100805.20
2018-05-09T07:04:58.816Z,100813.03
2018-05-09T07:07:29.401Z,100818.28
2018-05-09T07:10:02.350Z,100812.34
2018-05-09T07:12:33.641Z,100816.05
2018-05-09T07:15:05.651Z,100811.50
2018-05-09T07:17:37.765Z,100807.72
2018-05-09T07:20:08.828Z,100804.70
2018-05-09T07:22:40.639Z,100804.75
2018-05-09T07:25:10.137Z,100811.99
2018-05-09T07:27:39.823Z,100804.77
2018-05-09T07:30:10.623Z,100804.47
2018-05-09T07:32:41.489Z,100806.21
2018-05-09T07:35:12.688Z,100804.30
2018-05-09T07:37:44.126Z,100809.20
2018-05-09T07:40:13.693Z,100806.63
2018-05-09T07:42:44.426Z,100812.05
2018-05-09T07:45:13.576Z,100813.52
2018-05-09T07:47:44.329Z,100812.57
2018-05-09T07:50:15.142Z,100818.89
2018-05-09T07:52:45.978Z,100813.13
2018-05-09T07:55:17.159Z,100809.20
2018-05-09T07:57:46.174Z,100805.42
2018-05-09T08:00:15.255Z,100803.83
2018-05-09T08:02:44.384Z,100795.80
2018-05-09T08:05:15.273Z,100796.84
2018-05-09T08:07:45.670Z,100795.00
2018-05-09T08:10:15.336Z,100795.38
2018-05-09T08:12:44.465Z,100788.05
2018-05-09T08:15:14.123Z,100795.27
2018-05-09T08:17:44.744Z,100792.97
2018-05-09T08:20:15.552Z,100792.38
2018-05-09T08:22:46.484Z,100802.78
2018-05-09T08:25:16.436Z,100795.34
2018-05-09T08:27:46.775Z,100797.26
2018-05-09T08:30:15.799Z,100801.41
2018-05-09T08:32:46.728Z,100796.77
2018-05-09T08:35:15.852Z,100800.89
2018-05-09T08:37:44.955Z,100796.49
2018-05-09T08:40:15.899Z,100804.22
2018-05-09T08:42:46.734Z,100797.25
2018-05-09T08:45:17.550Z,100802.95
2018-05-09T08:47:47.209Z,100794.16
2018-05-09T08:50:18.476Z,100797.94
2018-05-09T08:52:48.087Z,100799.31
2018-05-09T08:55:19.137Z,100789.75
2018-05-09T08:57:49.021Z,100795.78
2018-05-09T09:00:18.611Z,100787.77
2018-05-09T09:02:49.771Z,100794.66
2018-05-09T09:05:19.369Z,100799.00
2018-05-09T09:07:49.370Z,100793.94
2018-05-09T09:10:18.533Z,100791.86
2018-05-09T09:12:47.557Z,100791.47
2018-05-09T09:15:18.270Z,100789.91
2018-05-09T09:17:47.500Z,100794.09
2018-05-09T09:20:17.348Z,100785.27
2018-05-09T09:22:48.020Z,100781.92
2018-05-09T09:25:17.178Z,100783.20
2018-05-09T09:27:48.558Z,100785.03
2018-05-09T09:30:19.181Z,100783.44
2018-05-09T09:32:48.238Z,100782.11
2018-05-09T09:35:19.036Z,100787.88
2018-05-09T09:37:49.855Z,100783.70
2018-05-09T09:40:20.736Z,100780.56
2018-05-09T09:42:50.008Z,100784.15
2018-05-09T09:45:18.824Z,100779.97
2018-05-09T09:47:47.892Z,100780.80
2018-05-09T09:50:17.179Z,100785.17
2018-05-09T09:52:46.966Z,100780.95
2018-05-09T09:55:18.021Z,100786.26
2018-05-09T09:57:47.091Z,100782.10
2018-05-09T10:00:26.429Z,100788.95
2018-05-09T10:02:57.299Z,100778.55
2018-05-09T10:05:27.928Z,100783.69
2018-05-09T10:07:59.451Z,100786.34
2018-05-09T10:10:29.945Z,100782.45
2018-05-09T10:13:00.732Z,100778.67
2018-05-09T10:15:32.083Z,100780.63
2018-05-09T10:18:02.517Z,100778.59
2018-05-09T10:20:32.898Z,100770.30
2018-05-09T10:23:02.599Z,100770.54
2018-05-09T10:25:33.239Z,100767.44
2018-05-09T10:28:02.540Z,100770.28
2018-05-09T10:30:33.123Z,100768.93
2018-05-09T10:33:02.334Z,100761.97
2018-05-09T10:35:31.347Z,100762.45
2018-05-09T10:38:00.627Z,100756.23
2018-05-09T10:40:31.253Z,100756.07
2018-05-09T10:43:01.175Z,100751.52
2018-05-09T10:45:31.722Z,100752.58
2018-05-09T10:48:02.416Z,100743.59
2018-05-09T10:50:32.280Z,100750.57
2018-05-09T10:53:01.376Z,100739.69
2018-05-09T10:55:30.384Z,100746.58
2018-05-09T10:58:01.251Z,100738.21
2018-05-09T11:00:30.548Z,100740.96
2018-05-09T11:02:59.587Z,100737.83
2018-05-09T11:05:30.367Z,100738.75
2018-05-09T11:07:59.245Z,100738.95
2018-05-09T11:10:29.895Z,100741.26
2018-05-09T11:12:59.186Z,100738.84
2018-05-09T11:15:28.196Z,100737.80
2018-05-09T11:17:58.786Z,100738.73
2018-05-09T11:20:28.656Z,100733.52
2018-05-09T11:22:58.376Z,100735.02
2018-05-09T11:25:29.554Z,100732.11
2018-05-09T11:28:00.256Z,100737.05
2018-05-09T11:30:31.809Z,100731.95
2018-05-09T11:33:02.604Z,100720.94
2018-05-09T11:35:33.672Z,100725.16
2018-05-09T11:38:03.016Z,100723.30
2018-05-09T11:40:32.882Z,100725.61
2018-05-09T11:43:03.715Z,100719.27
2018-05-09T11:45:33.740Z,100717.39
2018-05-09T11:48:03.044Z,100717.77
2018-05-09T11:50:32.328Z,100714.22
2018-05-09T11:53:01.409Z,100714.97
2018-05-09T11:55:32.611Z,100712.41
2018-05-09T11:58:03.662Z,100705.89
2018-05-09T12:00:35.039Z,100702.17
2018-05-09T12:03:05.651Z,100702.85
2018-05-09T12:05:34.762Z,100705.69
2018-05-09T12:08:05.981Z,100704.04
2018-05-09T12:10:35.402Z,100702.58
2018-05-09T12:13:06.534Z,100701.03
2018-05-09T12:15:35.864Z,100702.30
2018-05-09T12:18:06.524Z,100698.89
2018-05-09T12:20:37.870Z,100702.47
2018-05-09T12:23:08.687Z,100702.05
2018-05-09T12:25:38.207Z,100694.28
2018-05-09T12:28:08.808Z,100698.56
2018-05-09T12:30:38.939Z,100696.26
2018-05-09T12:33:08.241Z,100695.41
2018-05-09T12:35:38.073Z,100694.34
2018-05-09T12:38:08.642Z,100696.98
2018-05-09T12:40:38.248Z,100691.97
2018-05-09T12:43:09.534Z,100692.47
2018-05-09T12:45:40.499Z,100689.67
2018-05-09T12:48:10.722Z,100685.08
2018-05-09T12:50:41.955Z,100683.61
2018-05-09T12:53:12.705Z,100678.97
2018-05-09T12:55:42.514Z,100676.94
2018-05-09T12:58:12.312Z,100677.47
2018-05-09T13:00:43.827Z,100671.08
2018-05-09T13:03:14.674Z,100668.77
2018-05-09T13:05:45.506Z,100670.79
2018-05-09T13:08:16.845Z,100668.27
2018-05-09T13:10:47.730Z,100669.57
2018-05-09T13:13:17.665Z,100672.50
2018-05-09T13:15:50.146Z,100673.00
2018-05-09T13:18:20.031Z,100667.09
2018-05-09T13:20:50.842Z,100666.49
2018-05-09T13:23:21.753Z,100659.20
2018-05-09T13:25:52.916Z,100662.02
2018-05-09T13:28:23.955Z,100655.80
2018-05-09T13:30:54.862Z,100661.88
2018-05-09T13:33:25.738Z,100653.27
2018-05-09T13:35:55.287Z,100659.31
2018-05-09T13:38:25.988Z,100651.51
2018-05-09T13:40:56.603Z,100647.42
2018-05-09T13:43:26.383Z,100653.94
2018-05-09T13:45:56.702Z,100649.64
2018-05-09T13:48:25.689Z,100648.20
2018-05-09T13:50:55.365Z,100645.03
2018-05-09T13:53:25.896Z,100646.09
2018-05-09T13:55:55.367Z,100641.91
2018-05-09T13:58:26.004Z,100641.67
2018-05-09T14:00:55.045Z,100639.84
2018-05-09T14:03:25.830Z,100645.55
2018-05-09T14:05:56.182Z,100636.09
2018-05-09T14:08:25.401Z,100636.43
2018-05-09T14:10:54.482Z,100633.05
2018-05-09T14:13:23.496Z,100633.58
2018-05-09T14:15:54.505Z,100632.75
2018-05-09T14:18:23.640Z,100636.66
2018-05-09T14:20:53.807Z,100626.48
2018-05-09T14:23:24.663Z,100629.83
2018-05-09T14:25:56.032Z,100628.41
2018-05-09T14:28:26.932Z,100629.94
2018-05-09T14:30:57.585Z,100629.54
2018-05-09T14:33:28.211Z,100625.14
2018-05-09T14:35:58.921Z,100626.00
2018-05-09T14:38:28.495Z,100618.05
2018-05-09T14:40:57.494Z,100614.62
2018-05-09T14:43:28.130Z,100616.30
2018-05-09T14:45:57.248Z,100620.30
2018-05-09T14:48:27.878Z,100624.11
2018-05-09T14:50:58.705Z,100619.10
2018-05-09T14:53:27.727Z,100614.27
2018-05-09T14:55:57.026Z,100616.44
2018-05-09T14:58:27.677Z,100613.64
2018-05-09T15:00:58.211Z,100614.38
2018-05-09T15:03:27.327Z,100614.59
2018-05-09T15:05:56.892Z,100612.39
2018-05-09T15:08:27.632Z,100618.95
2018-05-09T15:10:57.436Z,100623.94
2018-05-09T15:13:28.760Z,100618.02
2018-05-09T15:15:59.820Z,100617.62
2018-05-09T15:18:29.416Z,100613.24
2018-05-09T15:20:58.483Z,100618.06
2018-05-09T15:23:29.962Z,100623.06
2018-05-09T15:26:00.541Z,100623.23
2018-05-09T15:28:29.562Z,100624.56
2018-05-09T15:30:58.877Z,100617.02
2018-05-09T15:33:28.524Z,100622.45
2018-05-09T15:35:57.580Z,100626.02
2018-05-09T15:38:28.534Z,100625.70
2018-05-09T15:40:57.860Z,100627.63
2018-05-09T15:43:28.566Z,100634.15
2018-05-09T15:45:57.701Z,100624.91
2018-05-09T15:48:27.036Z,100635.05
2018-05-09T15:50:56.121Z,100632.70
2018-05-09T15:53:26.780Z,100634.31
2018-05-09T15:55:55.965Z,100635.16
2018-05-09T15:58:26.711Z,100630.91
2018-05-09T16:00:56.085Z,100630.48
2018-05-09T16:03:25.061Z,100627.50
2018-05-09T16:05:54.045Z,100633.75
2018-05-09T16:08:24.974Z,100633.66
2018-05-09T16:13:36.424Z,100635.27
2018-05-09T16:16:07.270Z,100635.46
2018-05-09T16:18:36.567Z,100632.17
2018-05-09T16:21:05.604Z,100637.23
2018-05-09T16:23:34.941Z,100632.16
2018-05-09T16:26:06.023Z,100641.33
2018-05-09T16:28:35.450Z,100633.77
2018-05-09T16:31:06.154Z,100630.29
2018-05-09T16:33:35.297Z,100629.87
2018-05-09T16:36:07.310Z,100635.97
2018-05-09T16:38:36.639Z,100638.05
2018-05-09T16:41:08.037Z,100636.99
2018-05-09T16:43:37.392Z,100637.25
2018-05-09T16:46:09.401Z,100637.16
2018-05-09T16:48:40.386Z,100640.91
2018-05-09T16:51:11.112Z,100643.69
2018-05-09T16:53:41.939Z,100640.36
2018-05-09T16:56:12.892Z,100642.10
2018-05-09T16:58:43.626Z,100643.01
2018-05-09T17:01:14.530Z,100645.05
2018-05-09T17:03:45.739Z,100644.69
2018-05-09T17:06:14.849Z,100652.92
2018-05-09T17:08:46.795Z,100640.56
2018-05-09T17:11:17.481Z,100652.81
2018-05-09T17:13:47.404Z,100655.59
2018-05-09T17:16:18.147Z,100653.03
2018-05-09T17:18:49.373Z,100651.11
2018-05-09T17:21:59.517Z,100654.47
2018-05-09T17:24:29.469Z,100659.45
2018-05-09T17:27:00.307Z,100653.02
2018-05-09T17:29:31.290Z,100647.85
2018-05-09T17:32:00.435Z,100642.55
2018-05-09T17:34:30.148Z,100640.01
2018-05-09T17:37:00.969Z,100646.16
2018-05-09T17:39:31.594Z,100650.86
2018-05-09T17:42:02.302Z,100648.95
2018-05-09T17:44:31.702Z,100646.68
2018-05-09T17:47:02.324Z,100649.45
2018-05-09T17:49:33.180Z,100650.57
2018-05-09T17:52:04.332Z,100639.81
2018-05-09T17:54:34.979Z,100650.02
2018-05-09T17:57:05.931Z,100650.30
2018-05-09T17:59:35.896Z,100643.75
2018-05-09T18:02:06.357Z,100646.41
2018-05-09T18:04:37.311Z,100643.52
2018-05-09T18:07:06.750Z,100652.42
2018-05-09T18:09:35.913Z,100650.77
2018-05-09T18:12:07.068Z,100647.29
2018-05-09T18:14:37.532Z,100641.42
2018-05-09T18:17:08.442Z,100645.23
2018-05-09T18:19:39.963Z,100647.55
2018-05-09T18:22:11.494Z,100648.25
2018-05-09T18:24:42.135Z,100648.27
2018-05-09T18:27:13.289Z,100640.13
2018-05-09T18:29:43.739Z,100641.51
2018-05-09T18:32:15.361Z,100645.22
2018-05-09T18:34:46.210Z,100641.33
2018-05-09T18:37:15.571Z,100650.47
2018-05-09T18:39:46.351Z,100657.78
2018-05-09T18:42:16.299Z,100661.62
2018-05-09T18:44:45.796Z,100656.91
2018-05-09T18:47:15.094Z,100660.11
2018-05-09T18:49:44.437Z,100659.70
2018-05-09T18:52:15.246Z,100659.33
2018-05-09T18:54:46.608Z,100655.79
2018-05-09T18:57:15.731Z,100660.76
2018-05-09T18:59:44.967Z,100665.98
2018-05-09T19:02:14.302Z,100663.94
2018-05-09T19:04:45.031Z,100663.00
2018-05-09T19:07:15.972Z,100655.45
2018-05-09T19:09:45.313Z,100652.56
2018-05-09T19:12:14.356Z,100652.77
2018-05-09T19:14:43.769Z,100653.61
2018-05-09T19:17:14.462Z,100661.05
2018-05-09T19:19:45.136Z,100659.82
2018-05-09T19:22:16.025Z,100666.10
2018-05-09T19:24:45.147Z,100671.29
2018-05-09T19:27:15.974Z,100680.00
2018-05-09T19:29:45.490Z,100678.67
2018-05-09T19:32:16.923Z,100686.41
2018-05-09T19:34:48.322Z,100681.97
2018-05-09T19:37:18.109Z,100681.67
2018-05-09T19:39:48.311Z,100678.32
2018-05-09T19:42:19.739Z,100684.41
2018-05-09T19:44:48.825Z,100687.84
2018-05-09T19:47:17.898Z,100688.94
2018-05-09T19:49:49.275Z,100693.91
2018-05-09T19:52:19.491Z,100690.78
2018-05-09T19:54:50.134Z,100700.58
2018-05-09T19:57:21.290Z,100705.12
2018-05-09T19:59:50.986Z,100707.06
2018-05-09T20:02:20.072Z,100706.77
2018-05-09T20:04:51.509Z,100704.55
2018-05-09T20:07:22.928Z,100704.79
2018-05-09T20:09:52.531Z,100717.30
2018-05-09T20:12:22.197Z,100723.84
2018-05-09T20:14:51.640Z,100723.66
2018-05-09T20:17:21.614Z,100728.22
2018-05-09T20:19:51.009Z,100731.58
2018-05-09T20:22:21.248Z,100728.68
2018-05-09T20:24:50.602Z,100734.88
2018-05-09T20:27:21.564Z,100734.80
2018-05-09T20:29:51.475Z,100739.09
2018-05-09T20:32:41.708Z,100726.14
2018-05-09T20:35:13.177Z,100732.45
2018-05-09T20:37:43.796Z,100733.81
2018-05-09T20:40:15.397Z,100746.47
2018-05-09T20:42:47.039Z,100751.70
2018-05-09T20:45:16.388Z,100760.58
2018-05-09T20:47:47.342Z,100753.33
2018-05-09T20:50:16.689Z,100752.11
2018-05-09T20:52:47.547Z,100745.55
2018-05-09T20:55:30.141Z,100745.34
2018-05-09T20:58:00.527Z,100758.11
2018-05-09T21:00:31.461Z,100756.70
2018-05-09T21:03:01.006Z,100764.61
2018-05-09T21:05:32.475Z,100766.67
2018-05-09T21:08:03.524Z,100757.15
2018-05-09T21:10:32.875Z,100761.09
2018-05-09T21:13:02.778Z,100760.71
2018-05-09T21:15:32.331Z,100756.85
2018-05-09T21:18:03.651Z,100755.23
2018-05-09T21:20:34.373Z,100749.51
2018-05-09T21:23:05.937Z,100758.84
2018-05-09T21:25:37.583Z,100760.45
2018-05-09T21:28:08.473Z,100756.98
2018-05-09T21:30:39.542Z,100764.04
2018-05-09T21:33:10.170Z,100768.41
2018-05-09T21:35:40.697Z,100761.14
2018-05-09T21:38:11.484Z,100758.58
2018-05-09T21:40:41.658Z,100762.11
2018-05-09T21:43:12.759Z,100757.94
2018-05-09T21:45:41.936Z,100764.62
2018-05-09T21:48:11.828Z,100759.61
2018-05-09T21:50:42.803Z,100755.38
2018-05-09T21:53:12.783Z,100759.08
2018-05-09T21:55:43.538Z,100761.00
2018-05-09T21:58:12.848Z,100753.05
2018-05-09T22:00:43.545Z,100756.27
2018-05-09T22:03:14.425Z,100752.94
2018-05-09T22:05:45.483Z,100750.84
2018-05-09T22:08:16.832Z,100747.13
2018-05-09T22:10:48.084Z,100743.08
2018-05-09T22:13:18.062Z,100745.48
2018-05-09T22:15:49.125Z,100744.86
2018-05-09T22:18:20.124Z,100742.55
2018-05-09T22:20:50.638Z,100740.12
2018-05-09T22:23:20.089Z,100736.39
2018-05-09T22:25:50.547Z,100732.79
2018-05-09T22:28:21.565Z,100745.13
2018-05-09T22:30:52.767Z,100737.01
2018-05-09T22:33:24.322Z,100736.78
2018-05-09T22:35:55.020Z,100733.76
2018-05-09T22:38:24.630Z,100732.78
2018-05-09T22:40:54.182Z,100737.06
2018-05-09T22:43:23.864Z,100735.44
2018-05-09T22:45:53.302Z,100742.41
2018-05-09T22:48:23.725Z,100736.70
2018-05-09T22:50:53.326Z,100740.81
2018-05-09T22:53:24.041Z,100738.44
2018-05-09T22:55:54.995Z,100738.12
2018-05-09T22:58:25.168Z,100739.98
2018-05-09T23:00:54.677Z,100736.97
2018-05-09T23:03:25.608Z,100739.88
2018-05-09T23:05:55.582Z,100740.30
2018-05-09T23:08:24.957Z,100743.77
2018-05-09T23:10:56.212Z,100742.55
2018-05-09T23:13:27.638Z,100738.89
2018-05-09T23:15:56.484Z,100733.89
2018-05-09T23:18:27.484Z,100740.26
2018-05-09T23:20:58.953Z,100738.99
2018-05-09T23:23:30.719Z,100738.57
2018-05-09T23:26:01.457Z,100741.72
2018-05-09T23:28:32.971Z,100744.63
2018-05-09T23:31:02.204Z,100741.23
2018-05-09T23:33:31.147Z,100736.19
2018-05-09T23:36:00.467Z,100733.92
2018-05-09T23:38:31.567Z,100732.47
2018-05-09T23:41:00.963Z,100735.11
2018-05-09T23:43:30.923Z,100727.47
2018-05-09T23:46:00.822Z,100736.55
2018-05-09T23:48:32.679Z,100735.94
2018-05-09T23:51:02.485Z,100740.38
2018-05-09T23:53:31.625Z,100736.97
2018-05-09T23:56:00.735Z,100735.22
2018-05-09T23:58:29.893Z,100741.44
